Terminal Aerodrome Forecast
Issued by NWS

Home | Current Version | Previous Version | Text Only | Print | Product List | Glossary On
Versions: 1 2 3 4 5 6 7 8 9 10 11 12 13 14 15 16 17 18 19 20 21 22 23 24 25 26 27 28 29 30 31 32 33 34 35
000
FTUS44 KLIX 301137
TAFASD
TAF
KASD 301137Z 3012/0112 15009KT P6SM VCSH BKN015 OVC025
     FM301600 15011KT P6SM VCSH SCT020 OVC035
     FM301800 16012KT P6SM VCTS SCT025CB OVC040
      TEMPO 3020/3022 VRB25KT 1SM TSRA OVC010CB
     FM010000 16009KT P6SM OVC025
     FM010600 16008KT P6SM OVC010=

USA.gov is the U.S. government's official web portal to all federal, state and local government web resources and services.